createdAt,value
2018-06-02T00:00:37.918Z,66.10
2018-06-02T00:01:42.420Z,66.00
2018-06-02T00:02:47.934Z,66.30
2018-06-02T00:03:53.458Z,63.50
2018-06-02T00:04:58.989Z,66.40
2018-06-02T00:06:04.494Z,66.40
2018-06-02T00:07:11.010Z,65.10
2018-06-02T00:08:15.528Z,66.90
2018-06-02T00:09:21.067Z,62.90
2018-06-02T00:10:26.565Z,62.60
2018-06-02T00:11:32.081Z,68.70
2018-06-02T00:12:37.596Z,62.30
2018-06-02T00:13:44.124Z,63.20
2018-06-02T00:14:48.628Z,63.90
2018-06-02T00:15:54.154Z,63.30
2018-06-02T00:16:59.659Z,66.10
2018-06-02T00:18:05.192Z,63.90
2018-06-02T00:19:10.695Z,62.10
2018-06-02T00:20:17.248Z,60.10
2018-06-02T00:21:21.731Z,59.80
2018-06-02T00:22:27.255Z,61.10
2018-06-02T00:23:32.758Z,59.30
2018-06-02T00:24:38.281Z,63.50
2018-06-02T00:25:43.801Z,60.00
2018-06-02T00:26:50.331Z,60.10
2018-06-02T00:27:54.832Z,60.60
2018-06-02T00:29:00.362Z,60.20
2018-06-02T00:30:05.860Z,58.90
2018-06-02T00:31:11.407Z,58.10
2018-06-02T00:32:16.902Z,59.80
2018-06-02T00:33:23.423Z,57.20
2018-06-02T00:34:27.937Z,57.90
2018-06-02T00:35:33.454Z,63.40
2018-06-02T00:36:38.977Z,60.90
2018-06-02T00:37:44.501Z,62.90
2018-06-02T00:38:50.002Z,61.10
2018-06-02T00:39:56.524Z,63.50
2018-06-02T00:41:01.037Z,62.50
2018-06-02T00:42:06.554Z,64.70
2018-06-02T00:43:12.085Z,66.90
2018-06-02T00:44:17.586Z,63.90
2018-06-02T00:45:23.101Z,65.90
2018-06-02T00:46:29.629Z,66.80
2018-06-02T00:47:34.143Z,66.00
2018-06-02T00:48:39.671Z,66.60
2018-06-02T00:49:45.188Z,68.70
2018-06-02T00:50:50.698Z,69.60
2018-06-02T00:51:56.214Z,69.90
2018-06-02T00:53:02.740Z,74.00
2018-06-02T00:54:07.240Z,69.50
2018-06-02T00:55:12.771Z,73.30
2018-06-02T00:56:18.275Z,74.40
2018-06-02T00:57:23.801Z,71.40
2018-06-02T00:58:29.322Z,70.80
2018-06-02T00:59:35.862Z,76.20
2018-06-02T01:00:40.344Z,72.90
2018-06-02T01:01:45.897Z,72.40
2018-06-02T01:02:51.382Z,71.10
2018-06-02T01:03:56.903Z,77.80
2018-06-02T01:05:02.410Z,73.20
2018-06-02T01:06:08.932Z,80.40
2018-06-02T01:07:13.457Z,79.50
2018-06-02T01:08:18.960Z,83.20
2018-06-02T01:09:24.499Z,85.50
2018-06-02T01:10:29.992Z,80.30
2018-06-02T01:11:35.532Z,83.80
2018-06-02T01:12:42.075Z,82.30
2018-06-02T01:13:46.539Z,88.10
2018-06-02T01:14:52.065Z,88.50
2018-06-02T01:15:57.579Z,87.70
2018-06-02T01:17:03.110Z,84.30
2018-06-02T01:18:08.637Z,91.80
2018-06-02T01:19:15.140Z,89.00
2018-06-02T01:20:19.646Z,90.10
2018-06-02T01:21:25.168Z,87.70
2018-06-02T01:22:30.699Z,85.10
2018-06-02T01:23:36.217Z,86.10
2018-06-02T01:24:41.724Z,84.40
2018-06-02T01:25:48.255Z,83.90
2018-06-02T01:26:52.788Z,87.60
2018-06-02T01:27:58.295Z,85.30
2018-06-02T01:29:03.808Z,92.10
2018-06-02T01:30:09.301Z,90.60
2018-06-02T01:31:14.817Z,86.80
2018-06-02T01:32:21.350Z,91.20
2018-06-02T01:33:25.863Z,92.70
2018-06-02T01:34:31.372Z,89.00
2018-06-02T01:35:36.902Z,84.10
2018-06-02T01:36:42.403Z,84.40
2018-06-02T01:37:47.939Z,89.30
2018-06-02T01:38:54.466Z,86.00
2018-06-02T01:39:58.964Z,86.10
2018-06-02T01:41:04.512Z,86.40
2018-06-02T01:42:09.994Z,91.80
2018-06-02T01:43:15.499Z,90.30
2018-06-02T01:44:21.019Z,86.50
2018-06-02T01:45:27.566Z,94.30
2018-06-02T01:46:32.060Z,85.00
2018-06-02T01:47:37.575Z,89.80
2018-06-02T01:48:43.090Z,83.60
2018-06-02T01:49:48.631Z,92.20
2018-06-02T01:50:54.119Z,87.70
2018-06-02T01:52:00.665Z,87.30
2018-06-02T01:53:05.165Z,86.80
2018-06-02T01:54:10.688Z,88.10
2018-06-02T01:55:16.200Z,89.60
2018-06-02T01:56:21.709Z,88.10
2018-06-02T01:57:27.228Z,92.60
2018-06-02T01:58:33.766Z,88.10
2018-06-02T01:59:38.263Z,87.90
2018-06-02T02:00:43.771Z,87.30
2018-06-02T02:01:49.301Z,90.60
2018-06-02T02:02:54.812Z,92.40
2018-06-02T02:04:00.339Z,88.90
2018-06-02T02:05:06.880Z,90.00
2018-06-02T02:06:11.362Z,90.20
2018-06-02T02:07:16.880Z,97.70
2018-06-02T02:08:22.404Z,91.80
2018-06-02T02:09:27.921Z,92.90
2018-06-02T02:10:33.428Z,94.30
2018-06-02T02:11:39.963Z,96.40
2018-06-02T02:12:44.469Z,105.20
2018-06-02T02:13:50.003Z,103.50
2018-06-02T02:14:55.492Z,108.70
2018-06-02T02:16:01.010Z,113.00
2018-06-02T02:17:06.532Z,108.90
2018-06-02T02:18:13.061Z,111.20
2018-06-02T02:19:17.565Z,113.10
2018-06-02T02:20:23.097Z,114.50
2018-06-02T02:21:28.606Z,117.70
2018-06-02T02:22:34.112Z,119.50
2018-06-02T02:23:39.627Z,121.40
2018-06-02T02:24:46.163Z,122.90
2018-06-02T02:25:50.669Z,128.60
2018-06-02T02:26:56.194Z,135.30
2018-06-02T02:28:01.695Z,133.90
2018-06-02T02:29:07.224Z,137.00
2018-06-02T02:30:12.728Z,129.10
2018-06-02T02:31:19.878Z,134.10
2018-06-02T02:32:23.770Z,127.10
2018-06-02T02:33:29.278Z,139.50
2018-06-02T02:34:34.816Z,132.80
2018-06-02T02:35:40.331Z,136.60
2018-06-02T02:36:45.848Z,123.70
2018-06-02T02:37:52.360Z,121.90
2018-06-02T02:38:56.881Z,118.00
2018-06-02T02:40:02.390Z,118.40
2018-06-02T02:41:07.908Z,114.00
2018-06-02T02:42:13.431Z,113.50
2018-06-02T02:43:18.937Z,101.90
2018-06-02T02:44:25.467Z,104.70
2018-06-02T02:45:29.971Z,98.70
2018-06-02T02:46:35.482Z,109.20
2018-06-02T02:47:41.003Z,108.50
2018-06-02T02:48:46.532Z,106.60
2018-06-02T02:49:52.029Z,106.90
2018-06-02T02:50:58.560Z,99.40
2018-06-02T02:52:03.085Z,99.50
2018-06-02T02:53:08.587Z,97.20
2018-06-02T02:54:14.103Z,105.20
2018-06-02T02:55:19.625Z,100.30
2018-06-02T02:56:25.169Z,104.10
2018-06-02T02:57:31.660Z,105.20
2018-06-02T02:58:36.175Z,105.00
2018-06-02T02:59:41.690Z,108.60
2018-06-02T03:00:47.206Z,115.90
2018-06-02T03:01:52.729Z,111.40
2018-06-02T03:02:58.238Z,107.70
2018-06-02T03:04:04.770Z,107.20
2018-06-02T03:05:09.274Z,111.70
2018-06-02T03:06:14.786Z,113.90
2018-06-02T03:07:20.302Z,114.00
2018-06-02T03:08:25.826Z,114.70
2018-06-02T03:09:31.340Z,117.10
2018-06-02T03:10:37.861Z,114.80
2018-06-02T03:11:42.382Z,116.50
2018-06-02T03:12:47.884Z,116.70
2018-06-02T03:13:53.400Z,117.80
2018-06-02T03:14:58.925Z,122.50
2018-06-02T03:16:04.449Z,120.70
2018-06-02T03:17:10.968Z,122.60
2018-06-02T03:18:15.477Z,126.50
2018-06-02T03:19:20.991Z,125.40
2018-06-02T03:20:26.514Z,121.70
2018-06-02T03:21:32.027Z,120.50
2018-06-02T03:22:37.563Z,117.50
2018-06-02T03:23:44.063Z,119.80
2018-06-02T03:24:48.567Z,114.40
2018-06-02T03:25:54.090Z,111.60
2018-06-02T03:26:59.605Z,110.70
2018-06-02T03:28:05.128Z,105.60
2018-06-02T03:29:10.653Z,108.30
2018-06-02T03:30:17.164Z,98.10
2018-06-02T03:31:21.674Z,94.10
2018-06-02T03:32:27.245Z,105.00
2018-06-02T03:33:32.712Z,88.10
2018-06-02T03:34:38.234Z,91.80
2018-06-02T03:35:43.741Z,82.90
2018-06-02T03:36:50.355Z,90.40
2018-06-02T03:37:54.770Z,86.70
2018-06-02T03:39:00.294Z,85.40
2018-06-02T03:40:05.812Z,81.30
2018-06-02T03:41:11.331Z,89.10
2018-06-02T03:42:16.848Z,84.70
2018-06-02T03:43:23.369Z,84.20
2018-06-02T03:44:27.884Z,80.90
2018-06-02T03:45:33.390Z,80.50
2018-06-02T03:46:38.914Z,81.50
2018-06-02T03:47:44.436Z,73.80
2018-06-02T03:48:49.954Z,81.00
2018-06-02T03:49:56.466Z,85.80
2018-06-02T03:51:00.977Z,83.80
2018-06-02T03:52:06.503Z,89.80
2018-06-02T03:53:12.008Z,80.70
2018-06-02T03:54:17.534Z,80.60
2018-06-02T03:55:23.045Z,80.90
2018-06-02T03:56:29.574Z,82.00
2018-06-02T03:57:34.075Z,78.80
2018-06-02T03:58:39.601Z,78.90
2018-06-02T03:59:45.112Z,81.00
2018-06-02T04:00:50.631Z,80.80
2018-06-02T04:01:56.158Z,77.50
2018-06-02T04:03:02.676Z,75.90
2018-06-02T04:04:07.181Z,79.60
2018-06-02T04:05:12.700Z,75.70
2018-06-02T04:06:18.219Z,80.80
2018-06-02T04:07:23.769Z,80.50
2018-06-02T04:08:29.256Z,83.40
2018-06-02T04:09:35.775Z,80.90
2018-06-02T04:10:40.279Z,74.90
2018-06-02T04:11:45.802Z,74.70
2018-06-02T04:12:51.320Z,80.50
2018-06-02T04:13:56.835Z,77.50
2018-06-02T04:15:02.348Z,82.70
2018-06-02T04:16:08.886Z,83.20
2018-06-02T04:17:13.378Z,80.80
2018-06-02T04:18:18.903Z,80.50
2018-06-02T04:19:24.433Z,73.30
2018-06-02T04:20:29.933Z,73.40
2018-06-02T04:21:35.449Z,72.70
2018-06-02T04:22:41.971Z,74.50
2018-06-02T04:23:46.487Z,76.90
2018-06-02T04:24:52.006Z,78.20
2018-06-02T04:25:57.518Z,77.40
2018-06-02T04:27:03.037Z,75.80
2018-06-02T04:28:08.553Z,79.90
2018-06-02T04:29:15.089Z,76.00
2018-06-02T04:30:19.680Z,72.40
2018-06-02T04:31:25.122Z,68.90
2018-06-02T04:32:30.634Z,69.80
2018-06-02T04:33:36.148Z,72.60
2018-06-02T04:34:41.653Z,70.00
2018-06-02T04:35:48.181Z,68.40
2018-06-02T04:36:52.681Z,69.20
2018-06-02T04:37:58.213Z,70.90
2018-06-02T04:39:03.726Z,73.40
2018-06-02T04:40:09.238Z,70.40
2018-06-02T04:41:14.759Z,68.90
2018-06-02T04:42:21.276Z,71.00
2018-06-02T04:43:25.787Z,73.20
2018-06-02T04:44:31.303Z,74.30
2018-06-02T04:45:36.834Z,71.20
2018-06-02T04:46:42.336Z,70.70
2018-06-02T04:47:47.859Z,74.50
2018-06-02T04:48:54.392Z,72.10
2018-06-02T04:49:58.884Z,76.10
2018-06-02T04:51:04.414Z,77.70
2018-06-02T04:52:09.932Z,78.50
2018-06-02T04:53:15.463Z,77.80
2018-06-02T04:54:20.968Z,85.80
2018-06-02T04:55:27.480Z,77.50
2018-06-02T04:56:31.988Z,82.60
2018-06-02T04:57:37.511Z,78.80
2018-06-02T04:58:43.025Z,78.80
2018-06-02T04:59:48.547Z,83.40
2018-06-02T05:00:54.111Z,85.00
2018-06-02T05:02:00.601Z,84.60
2018-06-02T05:03:05.100Z,79.50
2018-06-02T05:04:10.608Z,80.40
2018-06-02T05:05:16.161Z,80.30
2018-06-02T05:06:21.658Z,84.10
2018-06-02T05:07:27.278Z,83.00
2018-06-02T05:08:33.692Z,80.50
2018-06-02T05:09:38.212Z,82.90
2018-06-02T05:10:43.736Z,84.90
2018-06-02T05:11:49.231Z,83.30
2018-06-02T05:12:54.746Z,83.10
2018-06-02T05:14:00.273Z,84.80
2018-06-02T05:15:06.827Z,80.80
2018-06-02T05:16:11.303Z,85.60
2018-06-02T05:17:16.816Z,86.10
2018-06-02T05:18:22.345Z,79.50
2018-06-02T05:19:27.856Z,85.50
2018-06-02T05:20:33.369Z,81.70
2018-06-02T05:21:39.893Z,83.50
2018-06-02T05:22:44.492Z,84.30
2018-06-02T05:23:49.927Z,81.00
2018-06-02T05:24:55.437Z,73.20
2018-06-02T05:26:00.951Z,79.70
2018-06-02T05:27:06.473Z,74.70
2018-06-02T05:28:13.011Z,75.40
2018-06-02T05:29:17.513Z,77.80
2018-06-02T05:30:23.099Z,76.10
2018-06-02T05:31:28.543Z,76.70
2018-06-02T05:32:34.051Z,78.80
2018-06-02T05:33:39.587Z,73.50
2018-06-02T05:34:46.111Z,76.00
2018-06-02T05:35:50.639Z,70.50
2018-06-02T05:36:56.128Z,71.00
2018-06-02T05:38:01.645Z,68.90
2018-06-02T05:39:07.159Z,68.50
2018-06-02T05:40:12.703Z,74.10
2018-06-02T05:41:19.207Z,70.60
2018-06-02T05:42:23.718Z,74.50
2018-06-02T05:43:29.230Z,74.20
2018-06-02T05:44:34.760Z,73.80
2018-06-02T05:45:40.275Z,67.90
2018-06-02T05:46:45.779Z,72.10
2018-06-02T05:47:52.320Z,70.20
2018-06-02T05:48:56.822Z,72.80
2018-06-02T05:50:02.334Z,67.20
2018-06-02T05:51:07.847Z,66.40
2018-06-02T05:52:13.382Z,68.90
2018-06-02T05:53:18.880Z,67.50
2018-06-02T05:54:25.418Z,65.90
2018-06-02T05:55:29.921Z,67.00
2018-06-02T05:56:35.430Z,63.80
2018-06-02T05:57:40.957Z,66.80
2018-06-02T05:58:46.483Z,65.30
2018-06-02T05:59:52.038Z,66.30
2018-06-02T06:00:58.524Z,70.10
2018-06-02T06:02:03.028Z,66.00
2018-06-02T06:03:08.532Z,68.50
2018-06-02T06:04:14.060Z,65.90
2018-06-02T06:05:19.594Z,62.50
2018-06-02T06:06:25.082Z,60.70
2018-06-02T06:07:31.615Z,61.90
2018-06-02T06:08:36.211Z,62.00
2018-06-02T06:09:41.646Z,62.20
2018-06-02T06:10:47.167Z,60.00
2018-06-02T06:11:52.681Z,61.50
2018-06-02T06:12:58.200Z,61.50
2018-06-02T06:14:04.723Z,61.10
2018-06-02T06:15:09.227Z,63.10
2018-06-02T06:16:14.800Z,61.50
2018-06-02T06:17:20.273Z,65.00
2018-06-02T06:18:25.780Z,59.50
2018-06-02T06:19:31.303Z,59.90
2018-06-02T06:20:37.832Z,59.40
2018-06-02T06:21:42.339Z,57.70
2018-06-02T06:22:47.849Z,59.20
2018-06-02T06:23:53.420Z,58.80
2018-06-02T06:24:58.888Z,60.30
2018-06-02T06:26:04.401Z,61.90
2018-06-02T06:27:10.927Z,62.70
2018-06-02T06:28:15.441Z,62.90
2018-06-02T06:29:20.959Z,61.70
2018-06-02T06:30:26.470Z,65.60
2018-06-02T06:31:32.031Z,64.60
2018-06-02T06:32:37.515Z,64.10
2018-06-02T06:33:44.036Z,66.70
2018-06-02T06:34:48.558Z,70.40
2018-06-02T06:35:54.055Z,70.70
2018-06-02T06:36:59.589Z,70.20
2018-06-02T06:38:05.155Z,74.10
2018-06-02T06:39:10.673Z,74.40
2018-06-02T06:40:17.136Z,77.90
2018-06-02T06:41:21.643Z,74.80
2018-06-02T06:42:27.183Z,72.20
2018-06-02T06:43:32.669Z,72.10
2018-06-02T06:44:38.240Z,80.50
2018-06-02T06:45:43.835Z,78.50
2018-06-02T06:46:50.241Z,79.20
2018-06-02T06:47:54.753Z,77.30
2018-06-02T06:49:00.280Z,73.80
2018-06-02T06:50:05.787Z,76.80
2018-06-02T06:51:11.311Z,79.70
2018-06-02T06:52:16.825Z,83.40
2018-06-02T06:53:23.360Z,83.50
2018-06-02T06:54:27.856Z,85.90
2018-06-02T06:55:33.376Z,86.60
2018-06-02T06:56:38.886Z,85.40
2018-06-02T06:57:44.435Z,92.50
2018-06-02T06:58:49.930Z,92.70
2018-06-02T06:59:56.463Z,94.80
2018-06-02T07:01:00.972Z,96.20
2018-06-02T07:02:06.498Z,96.70
2018-06-02T07:03:12.002Z,95.90
2018-06-02T07:04:17.517Z,95.00
2018-06-02T07:05:23.034Z,101.40
2018-06-02T07:06:29.565Z,102.30
2018-06-02T07:07:34.069Z,101.00
2018-06-02T07:08:39.588Z,97.70
2018-06-02T07:09:45.118Z,100.20
2018-06-02T07:10:50.626Z,108.30
2018-06-02T07:11:56.159Z,110.30
2018-06-02T07:13:02.686Z,109.70
2018-06-02T07:14:07.175Z,106.60
2018-06-02T07:15:12.722Z,109.30
2018-06-02T07:16:18.209Z,119.90
2018-06-02T07:17:23.751Z,117.70
2018-06-02T07:18:29.250Z,112.20
2018-06-02T07:19:35.786Z,126.40
2018-06-02T07:20:40.279Z,121.90
2018-06-02T07:21:45.829Z,140.30
2018-06-02T07:22:51.310Z,127.50
2018-06-02T07:23:56.832Z,118.90
2018-06-02T07:25:02.352Z,116.90
2018-06-02T07:26:08.888Z,110.50
2018-06-02T07:27:13.380Z,115.00
2018-06-02T07:28:18.907Z,113.40
2018-06-02T07:29:24.438Z,108.10
2018-06-02T07:30:29.939Z,104.40
2018-06-02T07:31:35.460Z,111.10
2018-06-02T07:32:42.005Z,108.00
2018-06-02T07:33:46.501Z,107.70
2018-06-02T07:34:52.014Z,109.10
2018-06-02T07:35:57.536Z,109.50
2018-06-02T07:37:03.065Z,105.80
2018-06-02T07:38:08.582Z,101.40
2018-06-02T07:39:15.098Z,103.70
2018-06-02T07:40:19.597Z,101.40
2018-06-02T07:41:25.129Z,98.80
2018-06-02T07:42:30.644Z,99.60
2018-06-02T07:43:36.163Z,99.80
2018-06-02T07:44:41.685Z,100.70
2018-06-02T07:45:48.217Z,97.70
2018-06-02T07:46:52.713Z,101.80
2018-06-02T07:47:58.225Z,91.80
2018-06-02T07:49:03.743Z,91.80
2018-06-02T07:50:09.265Z,94.00
2018-06-02T07:51:14.787Z,90.80
2018-06-02T07:52:21.308Z,90.30
2018-06-02T07:53:25.812Z,97.20
2018-06-02T07:54:31.338Z,95.30
2018-06-02T07:55:36.862Z,91.10
2018-06-02T07:56:42.377Z,93.10
2018-06-02T07:57:47.899Z,90.00
2018-06-02T07:58:54.421Z,92.00
2018-06-02T07:59:58.933Z,97.20
2018-06-02T08:01:04.445Z,89.60
2018-06-02T08:02:09.974Z,90.10
2018-06-02T08:03:15.479Z,85.60
2018-06-02T08:04:20.992Z,87.10
2018-06-02T08:05:27.514Z,89.00
2018-06-02T08:06:32.025Z,84.20
2018-06-02T08:07:37.541Z,89.00
2018-06-02T08:08:43.101Z,85.70
2018-06-02T08:09:48.590Z,86.10
2018-06-02T08:10:54.110Z,86.30
2018-06-02T08:12:00.628Z,86.60
2018-06-02T08:13:05.135Z,84.50
2018-06-02T08:14:10.661Z,89.30
2018-06-02T08:15:16.182Z,82.10
2018-06-02T08:16:21.702Z,87.20
2018-06-02T08:17:27.208Z,84.50
2018-06-02T08:18:33.750Z,79.00
2018-06-02T08:19:38.245Z,83.20
2018-06-02T08:20:43.771Z,80.50
2018-06-02T08:21:49.279Z,80.30
2018-06-02T08:22:54.798Z,81.70
2018-06-02T08:24:00.335Z,76.30
2018-06-02T08:25:06.843Z,77.90
2018-06-02T08:26:11.357Z,76.80
2018-06-02T08:27:16.861Z,76.30
2018-06-02T08:28:22.393Z,76.50
2018-06-02T08:29:27.921Z,76.80
2018-06-02T08:30:33.426Z,78.10
2018-06-02T08:31:39.954Z,77.40
2018-06-02T08:32:44.463Z,73.40
2018-06-02T08:33:49.981Z,77.10
2018-06-02T08:34:55.508Z,78.00
2018-06-02T08:36:01.014Z,73.80
2018-06-02T08:37:06.527Z,69.00
2018-06-02T08:38:13.070Z,73.10
2018-06-02T08:39:17.573Z,76.80
2018-06-02T08:40:23.102Z,69.60
2018-06-02T08:41:28.608Z,69.70
2018-06-02T08:42:34.135Z,68.60
2018-06-02T08:43:39.643Z,66.90
2018-06-02T08:44:46.182Z,71.20
2018-06-02T08:45:50.696Z,68.10
2018-06-02T08:46:56.255Z,66.50
2018-06-02T08:48:01.740Z,67.60
2018-06-02T08:49:07.233Z,63.20
2018-06-02T08:50:12.756Z,67.60
2018-06-02T08:51:19.304Z,61.70
2018-06-02T08:52:23.790Z,60.10
2018-06-02T08:53:29.316Z,63.10
2018-06-02T08:54:34.907Z,64.60
2018-06-02T08:55:40.364Z,58.20
2018-06-02T08:56:45.867Z,61.20
2018-06-02T08:57:52.399Z,56.90
2018-06-02T08:58:56.910Z,58.70
2018-06-02T09:00:02.419Z,56.20
2018-06-02T09:01:07.946Z,55.40
2018-06-02T09:02:13.478Z,53.70
2018-06-02T09:03:18.984Z,50.10
2018-06-02T09:04:25.542Z,49.70
2018-06-02T09:05:30.048Z,50.90
2018-06-02T09:06:35.536Z,48.70
2018-06-02T09:07:41.059Z,45.20
2018-06-02T09:08:46.577Z,47.70
2018-06-02T09:09:52.095Z,47.80
2018-06-02T09:10:58.615Z,46.20
2018-06-02T09:12:03.131Z,42.30
2018-06-02T09:13:08.652Z,38.60
2018-06-02T09:14:14.166Z,35.30
2018-06-02T09:15:19.698Z,33.10
2018-06-02T09:16:25.292Z,33.50
2018-06-02T09:17:31.729Z,30.90
2018-06-02T09:18:36.241Z,30.50
2018-06-02T09:19:41.774Z,30.90
2018-06-02T09:20:47.267Z,31.80
2018-06-02T09:21:52.819Z,31.50
2018-06-02T09:22:58.315Z,30.90
2018-06-02T09:24:04.840Z,30.80
2018-06-02T09:25:09.360Z,30.30
2018-06-02T09:26:14.874Z,28.40
2018-06-02T09:27:20.399Z,28.60
2018-06-02T09:28:25.923Z,29.30
2018-06-02T09:29:31.442Z,26.90
2018-06-02T09:30:37.953Z,28.70
2018-06-02T09:31:42.468Z,26.80
2018-06-02T09:32:47.991Z,26.30
2018-06-02T09:33:53.514Z,24.40
2018-06-02T09:34:59.073Z,23.80
2018-06-02T09:36:04.541Z,24.70
2018-06-02T09:37:11.066Z,22.10
2018-06-02T09:38:15.577Z,21.40
2018-06-02T09:39:21.103Z,21.90
2018-06-02T09:40:26.626Z,20.90
2018-06-02T09:41:32.135Z,21.20
2018-06-02T09:42:37.662Z,25.70
2018-06-02T09:43:44.182Z,21.20
2018-06-02T09:44:48.702Z,29.30
2018-06-02T09:45:54.213Z,21.80
2018-06-02T09:46:59.738Z,23.80
2018-06-02T09:48:05.247Z,21.30
2018-06-02T09:49:10.758Z,20.10
2018-06-02T09:50:17.311Z,20.90
2018-06-02T09:51:21.801Z,81.70
2018-06-02T09:52:27.315Z,33.00
2018-06-02T09:53:32.825Z,19.70
2018-06-02T09:54:38.371Z,19.30
2018-06-02T09:55:43.877Z,18.60
2018-06-02T09:56:50.398Z,19.60
2018-06-02T09:57:54.907Z,18.70
2018-06-02T09:59:00.440Z,18.60
2018-06-02T10:00:05.957Z,19.50
2018-06-02T10:01:11.479Z,18.40
2018-06-02T10:02:17.066Z,18.20
2018-06-02T10:03:23.526Z,18.70
2018-06-02T10:04:28.024Z,17.70
2018-06-02T10:05:33.545Z,17.30
2018-06-02T10:06:39.061Z,17.30
2018-06-02T10:07:44.574Z,16.60
2018-06-02T10:08:50.224Z,16.40
2018-06-02T10:09:56.630Z,15.80
2018-06-02T10:11:01.141Z,15.70
2018-06-02T10:12:06.645Z,16.10
2018-06-02T10:13:12.181Z,15.10
2018-06-02T10:14:17.693Z,14.90
2018-06-02T10:15:23.214Z,14.40
2018-06-02T10:16:29.748Z,13.50
2018-06-02T10:17:34.242Z,12.60
2018-06-02T10:18:39.771Z,11.70
2018-06-02T10:19:45.294Z,12.40
2018-06-02T10:20:50.811Z,11.00
2018-06-02T10:21:56.319Z,11.00
2018-06-02T10:23:02.870Z,11.70
2018-06-02T10:24:07.363Z,12.90
2018-06-02T10:25:12.884Z,11.40
2018-06-02T10:26:18.400Z,11.90
2018-06-02T10:27:23.918Z,12.60
2018-06-02T10:28:29.447Z,11.50
2018-06-02T10:29:35.991Z,13.10
2018-06-02T10:30:40.472Z,12.80
2018-06-02T10:31:46.130Z,12.00
2018-06-02T10:32:51.625Z,12.70
2018-06-02T10:33:57.034Z,14.80
2018-06-02T10:35:02.569Z,11.40
2018-06-02T10:36:09.111Z,11.60
2018-06-02T10:37:13.594Z,11.30
2018-06-02T10:38:19.109Z,12.20
2018-06-02T10:39:24.662Z,11.80
2018-06-02T10:40:30.148Z,12.50
2018-06-02T10:41:35.689Z,12.00
2018-06-02T10:42:42.202Z,11.50
2018-06-02T10:43:46.774Z,16.90
2018-06-02T10:44:52.221Z,10.90
2018-06-02T10:45:57.752Z,13.40
2018-06-02T10:47:03.288Z,11.90
2018-06-02T10:48:08.807Z,13.00
2018-06-02T10:49:15.315Z,12.10
2018-06-02T10:50:19.827Z,13.80
2018-06-02T10:51:25.339Z,13.70
2018-06-02T10:52:30.875Z,13.10
2018-06-02T10:53:36.389Z,13.10
2018-06-02T10:54:41.896Z,12.80
2018-06-02T10:55:48.440Z,13.20
2018-06-02T10:56:52.943Z,12.00
2018-06-02T10:57:58.470Z,12.10
2018-06-02T10:59:03.987Z,12.90
2018-06-02T11:00:09.491Z,13.10
2018-06-02T11:01:15.025Z,13.10
2018-06-02T11:02:21.592Z,12.60
2018-06-02T11:03:26.070Z,12.10
2018-06-02T11:04:31.589Z,12.30
2018-06-02T11:05:37.096Z,12.60
2018-06-02T11:06:42.628Z,12.60
2018-06-02T11:07:48.128Z,13.40
2018-06-02T11:08:54.695Z,12.90
2018-06-02T11:09:59.177Z,13.10
2018-06-02T11:11:04.690Z,12.30
2018-06-02T11:12:10.221Z,12.80
2018-06-02T11:13:15.792Z,13.40
2018-06-02T11:14:21.321Z,13.40
2018-06-02T11:15:27.788Z,13.00
2018-06-02T11:16:32.329Z,13.80
2018-06-02T11:17:37.877Z,11.70
2018-06-02T11:18:43.418Z,11.30
2018-06-02T11:19:48.872Z,11.30
2018-06-02T11:20:54.363Z,10.80
2018-06-02T11:22:00.894Z,11.00
2018-06-02T11:23:05.416Z,10.60
2018-06-02T11:24:10.929Z,10.20
2018-06-02T11:25:16.458Z,10.40
2018-06-02T11:26:21.962Z,10.70
2018-06-02T11:27:27.488Z,10.90
2018-06-02T11:28:34.008Z,11.40
2018-06-02T11:29:38.529Z,11.70
2018-06-02T11:30:44.046Z,10.80
2018-06-02T11:31:49.571Z,11.90
2018-06-02T11:32:55.072Z,10.60
2018-06-02T11:34:00.628Z,11.40
2018-06-02T11:35:07.113Z,12.40
2018-06-02T11:36:11.639Z,11.60
2018-06-02T11:37:17.153Z,10.80
2018-06-02T11:38:22.965Z,11.20
2018-06-02T11:39:28.221Z,10.60
2018-06-02T11:40:33.726Z,16.20
2018-06-02T11:41:40.248Z,11.20
2018-06-02T11:42:44.760Z,11.60
2018-06-02T11:43:50.272Z,11.70
2018-06-02T11:44:55.892Z,11.90
2018-06-02T11:46:01.309Z,12.50
2018-06-02T11:47:06.826Z,12.30
2018-06-02T11:48:13.362Z,11.70
2018-06-02T11:49:17.898Z,11.40
2018-06-02T11:50:23.404Z,11.60
2018-06-02T11:51:28.906Z,10.90
2018-06-02T11:52:34.548Z,10.80
2018-06-02T11:53:40.040Z,11.40
2018-06-02T11:54:46.479Z,12.70
2018-06-02T11:55:51.000Z,11.20
2018-06-02T11:56:56.529Z,10.30
2018-06-02T11:58:02.020Z,9.90
2018-06-02T11:59:07.557Z,10.70
2018-06-02T12:00:13.063Z,11.40
2018-06-02T12:01:19.582Z,11.20
2018-06-02T12:02:24.079Z,11.20
2018-06-02T12:03:29.598Z,11.30
2018-06-02T12:04:35.128Z,12.00
2018-06-02T12:05:40.642Z,12.70
2018-06-02T12:06:46.165Z,29.10
2018-06-02T12:07:52.686Z,12.00
2018-06-02T12:08:57.207Z,16.30
2018-06-02T12:10:02.722Z,15.00
2018-06-02T12:11:08.249Z,15.10
2018-06-02T12:12:13.757Z,12.20
2018-06-02T12:13:19.289Z,12.70
2018-06-02T12:14:25.821Z,12.40
2018-06-02T12:15:30.326Z,11.50
2018-06-02T12:16:35.862Z,12.30
2018-06-02T12:17:41.357Z,12.50
2018-06-02T12:18:46.883Z,12.30
2018-06-02T12:19:52.390Z,12.10
2018-06-02T12:20:58.910Z,11.50
2018-06-02T12:22:03.428Z,16.90
2018-06-02T12:23:08.941Z,12.40
2018-06-02T12:24:14.458Z,11.60
2018-06-02T12:25:20.123Z,11.50
2018-06-02T12:26:25.516Z,11.00
2018-06-02T12:27:32.045Z,11.10
2018-06-02T12:28:36.536Z,10.50
2018-06-02T12:29:42.106Z,11.00
2018-06-02T12:30:47.581Z,11.10
2018-06-02T12:31:53.112Z,10.60
2018-06-02T12:32:58.618Z,10.60
2018-06-02T12:34:05.161Z,10.50
2018-06-02T12:35:09.649Z,10.70
2018-06-02T12:36:15.181Z,10.60
2018-06-02T12:37:20.696Z,9.50
2018-06-02T12:38:26.210Z,9.90
2018-06-02T12:39:31.735Z,9.80
2018-06-02T12:40:38.281Z,10.00
2018-06-02T12:41:42.792Z,9.30
2018-06-02T12:42:48.307Z,10.00
2018-06-02T12:43:53.810Z,9.80
2018-06-02T12:44:59.376Z,9.50
2018-06-02T12:46:04.858Z,11.40
2018-06-02T12:47:11.434Z,9.50
2018-06-02T12:48:15.902Z,9.10
2018-06-02T12:49:21.425Z,9.00
2018-06-02T12:50:26.914Z,9.50
2018-06-02T12:51:32.447Z,9.50
2018-06-02T12:52:37.971Z,9.50
2018-06-02T12:53:44.513Z,9.30
2018-06-02T12:54:49.006Z,9.70
2018-06-02T12:55:54.520Z,10.70
2018-06-02T12:57:00.061Z,9.50
2018-06-02T12:58:05.593Z,9.80
2018-06-02T12:59:11.084Z,9.40
2018-06-02T13:00:17.622Z,9.80
2018-06-02T13:01:22.136Z,9.70
2018-06-02T13:02:27.655Z,9.90
2018-06-02T13:03:33.171Z,9.40
2018-06-02T13:04:38.675Z,9.10
2018-06-02T13:05:44.191Z,9.80
2018-06-02T13:06:50.730Z,10.10
2018-06-02T13:07:55.258Z,8.80
2018-06-02T13:09:00.791Z,8.80
2018-06-02T13:10:06.286Z,8.80
2018-06-02T13:11:11.792Z,8.50
2018-06-02T13:12:17.329Z,8.90
2018-06-02T13:13:23.843Z,9.00
2018-06-02T13:14:28.365Z,8.40
2018-06-02T13:15:33.878Z,9.90
2018-06-02T13:16:39.391Z,9.00
2018-06-02T13:17:44.928Z,8.60
2018-06-02T13:18:50.438Z,24.60
2018-06-02T13:19:56.962Z,9.60
2018-06-02T13:21:01.473Z,9.00
2018-06-02T13:22:06.988Z,8.80
2018-06-02T13:23:12.518Z,9.60
2018-06-02T13:24:18.026Z,9.80
2018-06-02T13:25:23.575Z,9.70
2018-06-02T13:26:30.078Z,9.20
2018-06-02T13:27:34.591Z,8.70
2018-06-02T13:28:40.114Z,8.60
2018-06-02T13:29:45.636Z,8.60
2018-06-02T13:30:51.148Z,10.90
2018-06-02T13:31:56.701Z,9.50
2018-06-02T13:33:03.213Z,9.00
2018-06-02T13:34:07.719Z,9.80
2018-06-02T13:35:13.241Z,9.50
2018-06-02T13:36:18.749Z,11.00
2018-06-02T13:37:24.291Z,9.90
2018-06-02T13:38:29.805Z,8.80
2018-06-02T13:39:36.329Z,8.30
2018-06-02T13:40:40.864Z,8.50
2018-06-02T13:41:46.364Z,8.50
2018-06-02T13:42:51.874Z,7.90
2018-06-02T13:43:57.423Z,9.70
2018-06-02T13:45:02.918Z,8.10
2018-06-02T13:46:09.455Z,9.50
2018-06-02T13:47:13.951Z,7.90
2018-06-02T13:48:19.479Z,10.10
2018-06-02T13:49:24.994Z,9.80
2018-06-02T13:50:30.515Z,9.30
2018-06-02T13:51:36.049Z,10.60
2018-06-02T13:52:42.582Z,8.40
2018-06-02T13:53:47.074Z,8.50
2018-06-02T13:54:52.592Z,9.00
2018-06-02T13:55:58.112Z,7.80
2018-06-02T13:57:03.655Z,8.10
2018-06-02T13:58:09.177Z,7.60
2018-06-02T13:59:15.781Z,7.50
2018-06-02T14:00:20.194Z,8.00
2018-06-02T14:01:25.743Z,7.20
2018-06-02T14:02:31.327Z,9.30